• Join FlightAware (Why Join?)
  • Login
  • US Flag 
07:12AM EST


 

Airport Tracker/Info


-or-


 

Live Flight TrackerFlight Track Log ✈ FIN430 ✈ 14-Nov-2013 ✈ EFRO / RVN - EFHK / HEL

Flight Track Log - Related Links

Times and Time Zones

All times are in EST time to prevent confusion due to time zone crossing. See the FIN430 flight status page for this flight to view local times or setup timezone preferences in your user account.

Time Position Orientation Groundspeed Altitude Reporting Facility
EST Latitude Longitude Course Direction KTS MPH feet Rate Location/Type
11:25AM 66.1901 25.7665 184° South  Level Estimated
11:26AM 66.0652 25.7456 184° South  Level Estimated
11:27AM 65.9402 25.7249 184° South  Level Estimated
11:28AM 65.8153 25.7044 184° South  Level Estimated
11:29AM 65.6904 25.6841 184° South  Level Estimated
11:30AM 65.5655 25.6640 184° South  Level Estimated
11:31AM 65.4405 25.6441 184° South  Level Estimated
11:32AM 65.3156 25.6244 184° South  Level Estimated
11:33AM 65.1907 25.6048 184° South  Level Estimated
11:34AM 65.0657 25.5855 184° South  Level Estimated
11:35AM 64.9408 25.5663 184° South  Level Estimated
11:36AM 64.8158 25.5473 184° South  Level Estimated
11:37AM 64.6909 25.5285 184° South  Level Estimated
11:38AM 64.5659 25.5099 184° South  Level Estimated
11:39AM 64.4410 25.4914 184° South  Level Estimated
11:40AM 64.3160 25.4731 184° South  Level Estimated
11:41AM 64.1911 25.4550 184° South  Level Estimated
11:42AM 64.0661 25.4370 184° South  Level Estimated
11:43AM 63.9412 25.4192 184° South  Level Estimated
11:44AM 63.8162 25.4015 184° South  Level Estimated
11:45AM 63.6912 25.3840 184° South  Level Estimated
11:46AM 63.5663 25.3667 184° South  Level Estimated
11:47AM 63.4413 25.3495 184° South  Level Estimated
11:48AM 63.3163 25.3324 184° South  Level Estimated
11:49AM 63.1914 25.3155 183° South  Level Estimated
11:50AM 63.0664 25.2988 183° South  Level Estimated
11:51AM 62.9414 25.2822 183° South  Level Estimated
11:52AM 62.8164 25.2657 183° South  Level Estimated
11:53AM 62.6939 25.2497 183° South  Level Estimated
11:54AM 62.5714 25.2338 183° South  Level Estimated
11:55AM 62.4488 25.2181 183° South  Level Estimated
11:56AM 62.3263 25.2024 183° South  Level Estimated
11:57AM 62.2038 25.1870 183° South  Level Estimated
11:58AM 62.0812 25.1716 183° South  Level Estimated
11:59AM 61.9587 25.1563 183° South  Level Estimated
12:00PM 61.8362 25.1412 183° South  Level Estimated
12:01PM 61.7136 25.1262 183° South  Level Estimated
12:02PM 61.5911 25.1113 183° South  Level Estimated
12:03PM 61.4685 25.0966 183° South  Level Estimated
12:04PM 61.3460 25.0819 183° South  Level Estimated
12:05PM 61.2234 25.0674 183° South  Level Estimated
12:06PM 61.1009 25.0530 183° South  Level Estimated
12:07PM 60.9783 25.0387 183° South  Level Estimated
12:08PM 60.8558 25.0245 183° South  Level Estimated
12:09PM 60.7332 25.0104 183° South  Level Estimated
12:10PM 60.6107 24.9964 183° South  Level Estimated
12:11PM 60.4881 24.9825 183° South  Level Estimated
12:12PM 60.3655 24.9687 183° South  Level Estimated
12:13PM 60.3172 24.9633 183° South  Level Estimated
12:14PM 60.3172 24.9633 37° Northeast  Level Estimated
12:15PM 60.3172 24.9633 37° Northeast  Level Estimated
12:16PM 60.3172 24.9633 37° Northeast  Level Estimated
12:17PM 60.3172 24.9633 37° Northeast  Level Estimated
12:18PM 60.3172 24.9633 37° Northeast  Level Estimated
12:19PM 60.3172 24.9633 37° Northeast  Level Estimated
12:20PM 60.3172 24.9633 37° Northeast  Level Estimated
12:21PM 60.3172 24.9633 37° Northeast  Level Estimated
12:22PM 60.3172 24.9633 37° Northeast  Level Estimated
12:23PM 60.3172 24.9633 37° Northeast  Level Estimated
12:24PM 60.3172 24.9633 37° Northeast  Level Estimated
12:25PM 60.3172 24.9633 37° Northeast  Level Estimated
12:26PM 60.3172 24.9633 37° Northeast  Level Estimated